createdAt,value
2023-01-03T00:01:57.289Z,74.55
2023-01-03T00:04:26.712Z,74.20
2023-01-03T00:06:56.811Z,74.66
2023-01-03T00:09:26.391Z,74.07
2023-01-03T00:12:14.788Z,74.49
2023-01-03T00:14:45.286Z,74.00
2023-01-03T00:17:15.457Z,74.16
2023-01-03T00:19:46.090Z,73.97
2023-01-03T00:22:17.153Z,74.02
2023-01-03T00:24:48.108Z,74.25
2023-01-03T00:27:19.271Z,74.45
2023-01-03T00:29:48.723Z,74.44
2023-01-03T00:32:18.593Z,74.85
2023-01-03T00:34:48.653Z,74.83
2023-01-03T00:37:18.084Z,75.15
2023-01-03T00:39:47.381Z,75.56
2023-01-03T00:42:18.541Z,75.73
2023-01-03T00:44:47.912Z,75.64
2023-01-03T00:47:17.497Z,75.42
2023-01-03T00:49:46.907Z,75.21
2023-01-03T00:52:16.531Z,75.23
2023-01-03T00:54:45.823Z,75.31
2023-01-03T00:57:15.444Z,75.62
2023-01-03T00:59:46.238Z,75.59
2023-01-03T01:02:16.032Z,75.38
2023-01-03T01:04:45.527Z,75.37
2023-01-03T01:07:15.147Z,75.63
2023-01-03T01:09:44.573Z,75.84
2023-01-03T01:12:14.190Z,76.24
2023-01-03T01:14:43.606Z,76.64
2023-01-03T01:17:19.170Z,76.70
2023-01-03T01:19:51.747Z,77.12
2023-01-03T01:22:21.622Z,76.74
2023-01-03T01:24:51.329Z,76.85
2023-01-03T01:27:21.100Z,77.48
2023-01-03T01:29:50.424Z,78.01
2023-01-03T01:32:21.574Z,77.96
2023-01-03T01:34:50.984Z,78.64
2023-01-03T01:37:20.845Z,78.71
2023-01-03T01:39:50.374Z,78.28
2023-01-03T01:42:37.444Z,78.30
2023-01-03T01:45:13.661Z,78.98
2023-01-03T01:47:50.896Z,78.56
2023-01-03T01:50:25.817Z,78.71
2023-01-03T01:53:06.653Z,79.37
2023-01-03T01:55:39.958Z,79.03
2023-01-03T01:58:10.625Z,79.69
2023-01-03T02:00:41.208Z,79.74
2023-01-03T02:03:13.278Z,79.51
2023-01-03T02:05:47.407Z,80.08
2023-01-03T02:08:17.369Z,80.31
2023-01-03T02:11:03.972Z,80.97
2023-01-03T02:13:42.420Z,80.96
2023-01-03T02:16:50.607Z,80.98
2023-01-03T02:19:54.082Z,81.43
2023-01-03T02:22:51.368Z,80.52
2023-01-03T02:26:04.772Z,80.53
2023-01-03T02:29:19.622Z,79.67
2023-01-03T02:31:59.556Z,80.23
2023-01-03T02:34:40.942Z,79.42
2023-01-03T02:37:21.505Z,79.29
2023-01-03T02:39:59.967Z,79.22
2023-01-03T02:42:53.500Z,78.70
2023-01-03T02:45:44.592Z,79.02
2023-01-03T02:48:21.216Z,79.20
2023-01-03T02:50:52.849Z,78.79
2023-01-03T02:53:27.977Z,78.87
2023-01-03T02:56:01.846Z,78.17
2023-01-03T02:58:35.981Z,77.48
2023-01-03T03:01:07.540Z,77.63
2023-01-03T03:03:41.302Z,76.76
2023-01-03T03:06:19.070Z,76.75
2023-01-03T03:08:49.523Z,76.01
2023-01-03T03:11:36.180Z,75.45
2023-01-03T03:14:14.219Z,75.20
2023-01-03T03:16:50.364Z,76.09
2023-01-03T03:19:46.338Z,75.03
2023-01-03T03:22:47.114Z,74.98
2023-01-03T03:25:22.549Z,74.93
2023-01-03T03:28:13.467Z,75.02
2023-01-03T03:30:47.377Z,75.39
2023-01-03T03:33:19.449Z,74.46
2023-01-03T03:35:57.245Z,74.72
2023-01-03T03:38:30.301Z,73.68
2023-01-03T03:41:23.959Z,73.61
2023-01-03T03:44:20.079Z,72.73
2023-01-03T03:46:56.560Z,72.56
2023-01-03T03:49:41.119Z,72.18
2023-01-03T03:52:17.332Z,72.12
2023-01-03T03:54:52.149Z,71.61
2023-01-03T03:57:27.258Z,71.83
2023-01-03T04:00:00.244Z,71.14
2023-01-03T04:02:32.183Z,71.47
2023-01-03T04:05:09.043Z,71.18
2023-01-03T04:07:41.246Z,71.17
2023-01-03T04:10:12.618Z,71.21
2023-01-03T04:12:42.524Z,70.72
2023-01-03T04:15:12.415Z,70.61
2023-01-03T04:17:42.102Z,70.90
2023-01-03T04:20:13.146Z,71.38
2023-01-03T04:22:44.236Z,71.36
2023-01-03T04:25:13.782Z,71.21
2023-01-03T04:27:43.353Z,71.15
2023-01-03T04:30:13.943Z,71.03
2023-01-03T04:32:43.680Z,72.14
2023-01-03T04:35:12.939Z,71.58
2023-01-03T04:37:44.053Z,71.74
2023-01-03T04:40:14.031Z,71.07
2023-01-03T04:43:01.105Z,71.81
2023-01-03T04:45:30.521Z,71.77
2023-01-03T04:48:00.173Z,71.59
2023-01-03T04:50:30.764Z,70.59
2023-01-03T04:53:02.128Z,70.91
2023-01-03T04:55:31.510Z,71.44
2023-01-03T04:58:02.260Z,71.07
2023-01-03T05:00:31.781Z,70.61
2023-01-03T05:03:01.341Z,70.78
2023-01-03T05:05:30.783Z,70.34
2023-01-03T05:08:04.587Z,71.09
2023-01-03T05:10:34.811Z,71.22
2023-01-03T05:13:04.554Z,70.39
2023-01-03T05:15:37.967Z,69.84
2023-01-03T05:18:07.860Z,70.47
2023-01-03T05:20:56.466Z,70.03
2023-01-03T05:23:47.635Z,69.73
2023-01-03T05:26:18.788Z,69.55
2023-01-03T05:28:51.763Z,69.26
2023-01-03T05:31:21.333Z,70.31
2023-01-03T05:33:51.645Z,69.76
2023-01-03T05:36:20.979Z,69.98
2023-01-03T05:38:52.369Z,70.26
2023-01-03T05:41:35.646Z,70.00
2023-01-03T05:44:05.467Z,69.80
2023-01-03T05:46:35.276Z,69.74
2023-01-03T05:49:05.009Z,70.04
2023-01-03T05:51:34.437Z,70.10
2023-01-03T05:54:05.857Z,70.20
2023-01-03T05:56:35.600Z,70.50
2023-01-03T05:59:07.792Z,70.72
2023-01-03T06:01:37.390Z,70.39
2023-01-03T06:04:07.747Z,70.44
2023-01-03T06:06:37.153Z,70.07
2023-01-03T06:09:08.209Z,69.93
2023-01-03T06:11:37.842Z,70.11
2023-01-03T06:14:07.514Z,70.27
2023-01-03T06:16:54.259Z,70.69
2023-01-03T06:19:24.053Z,70.47
2023-01-03T06:21:53.364Z,70.15
2023-01-03T06:24:24.464Z,70.49
2023-01-03T06:26:53.874Z,70.35
2023-01-03T06:29:23.470Z,70.66
2023-01-03T06:31:52.841Z,70.47
2023-01-03T06:34:22.431Z,70.79
2023-01-03T06:36:51.841Z,71.01
2023-01-03T06:39:21.475Z,71.20
2023-01-03T06:41:52.370Z,70.92
2023-01-03T06:44:22.315Z,71.50
2023-01-03T06:47:09.247Z,70.96
2023-01-03T06:49:58.926Z,70.88
2023-01-03T06:52:46.138Z,71.31
2023-01-03T06:55:16.023Z,71.46
2023-01-03T06:57:46.762Z,71.22
2023-01-03T07:00:17.356Z,70.58
2023-01-03T07:02:46.581Z,70.63
2023-01-03T07:05:16.302Z,70.67
2023-01-03T07:07:45.782Z,70.43
2023-01-03T07:10:15.561Z,71.28
2023-01-03T07:13:03.739Z,70.86
2023-01-03T07:15:33.458Z,71.05
2023-01-03T07:18:02.882Z,70.66
2023-01-03T07:20:32.551Z,70.48
2023-01-03T07:23:01.891Z,70.31
2023-01-03T07:25:31.944Z,70.77
2023-01-03T07:28:08.053Z,70.85
2023-01-03T07:30:40.742Z,70.79
2023-01-03T07:33:10.821Z,70.80
2023-01-03T07:35:40.256Z,70.80
2023-01-03T07:38:10.927Z,70.34
2023-01-03T07:40:40.786Z,70.89
2023-01-03T07:43:30.248Z,70.09
2023-01-03T07:46:00.094Z,70.56
2023-01-03T07:48:29.466Z,69.19
2023-01-03T07:51:00.369Z,69.22
2023-01-03T07:53:30.419Z,69.60
2023-01-03T07:56:09.121Z,68.86
2023-01-03T07:58:42.647Z,68.83
2023-01-03T08:01:14.227Z,68.90
2023-01-03T08:03:44.938Z,69.57
2023-01-03T08:06:16.447Z,68.98
2023-01-03T08:09:06.616Z,69.12
2023-01-03T08:11:53.714Z,69.24
2023-01-03T08:14:26.752Z,69.36
2023-01-03T08:16:57.410Z,69.76
2023-01-03T08:19:27.161Z,70.15
2023-01-03T08:21:59.504Z,69.50
2023-01-03T08:24:28.932Z,70.24
2023-01-03T08:26:58.557Z,70.02
2023-01-03T08:29:29.484Z,70.07
2023-01-03T08:32:03.060Z,70.16
2023-01-03T08:34:37.151Z,71.53
2023-01-03T08:37:11.129Z,71.25
2023-01-03T08:39:45.260Z,70.64
2023-01-03T08:42:20.761Z,71.52
2023-01-03T08:44:55.623Z,70.87
2023-01-03T08:47:25.608Z,71.44
2023-01-03T08:49:55.928Z,71.49
2023-01-03T08:52:30.186Z,71.93
2023-01-03T08:55:02.582Z,71.26
2023-01-03T08:57:32.298Z,72.05
2023-01-03T09:00:03.927Z,72.31
2023-01-03T09:02:36.820Z,71.90
2023-01-03T09:05:07.036Z,72.25
2023-01-03T09:07:36.554Z,73.29
2023-01-03T09:10:06.274Z,73.09
2023-01-03T09:12:35.954Z,72.88
2023-01-03T09:15:08.276Z,72.78
2023-01-03T09:17:37.975Z,73.64
2023-01-03T09:20:08.476Z,72.86
2023-01-03T09:22:38.242Z,72.84
2023-01-03T09:25:08.628Z,73.38
2023-01-03T09:27:38.768Z,72.83
2023-01-03T09:30:10.654Z,72.29
2023-01-03T09:32:40.401Z,72.67
2023-01-03T09:35:11.058Z,72.63
2023-01-03T09:37:45.384Z,72.50
2023-01-03T09:40:18.604Z,72.72
2023-01-03T09:43:05.727Z,72.50
2023-01-03T09:45:38.925Z,71.90
2023-01-03T09:48:09.043Z,72.04
2023-01-03T09:51:05.920Z,71.37
2023-01-03T09:53:55.616Z,71.12
2023-01-03T09:56:42.755Z,71.57
2023-01-03T09:59:33.163Z,71.81
2023-01-03T10:02:40.665Z,71.85
2023-01-03T10:05:46.449Z,72.06
2023-01-03T10:08:38.015Z,72.94
2023-01-03T10:11:10.879Z,72.47
2023-01-03T10:14:07.039Z,73.67
2023-01-03T10:16:50.903Z,73.52
2023-01-03T10:19:45.604Z,74.16
2023-01-03T10:22:19.153Z,74.40
2023-01-03T10:24:51.540Z,75.64
2023-01-03T10:27:24.004Z,75.57
2023-01-03T10:29:57.316Z,76.24
2023-01-03T10:32:44.218Z,76.19
2023-01-03T10:35:21.902Z,75.82
2023-01-03T10:37:54.773Z,75.92
2023-01-03T10:40:35.855Z,76.38
2023-01-03T10:43:19.106Z,75.67
2023-01-03T10:45:56.992Z,75.50
2023-01-03T10:48:52.612Z,76.21
2023-01-03T10:51:34.522Z,75.86
2023-01-03T10:54:21.055Z,75.20
2023-01-03T10:56:51.229Z,75.25
2023-01-03T10:59:26.877Z,75.53
2023-01-03T11:02:04.205Z,75.22
2023-01-03T11:04:34.713Z,75.42
2023-01-03T11:07:15.530Z,75.58
2023-01-03T11:09:51.822Z,75.01
2023-01-03T11:12:28.094Z,75.46
2023-01-03T11:15:01.199Z,75.39
2023-01-03T11:17:31.449Z,74.47
2023-01-03T11:20:01.213Z,74.75
2023-01-03T11:22:40.482Z,73.74
2023-01-03T11:25:26.394Z,73.73
2023-01-03T11:28:43.074Z,73.37
2023-01-03T11:31:23.844Z,73.90
2023-01-03T11:34:07.927Z,73.29
2023-01-03T11:36:49.897Z,73.75
2023-01-03T11:39:44.113Z,74.37
2023-01-03T11:42:46.927Z,74.82
2023-01-03T11:45:49.014Z,74.68
2023-01-03T11:48:42.400Z,75.88
2023-01-03T11:51:17.015Z,76.61
2023-01-03T11:54:03.145Z,76.63
2023-01-03T11:56:38.314Z,77.66
2023-01-03T11:59:46.189Z,77.77
2023-01-03T12:02:50.208Z,78.30
2023-01-03T12:05:42.919Z,77.69
2023-01-03T12:08:31.795Z,76.95
2023-01-03T12:11:12.139Z,76.58
2023-01-03T12:13:50.097Z,76.03
2023-01-03T12:16:26.382Z,75.81
2023-01-03T12:18:59.765Z,75.69
2023-01-03T12:21:36.728Z,75.88
2023-01-03T12:24:15.636Z,75.19
2023-01-03T12:26:52.609Z,75.62
2023-01-03T12:29:29.376Z,75.65
2023-01-03T12:32:05.200Z,75.99
2023-01-03T12:34:40.736Z,76.22
2023-01-03T12:37:18.144Z,75.91
2023-01-03T12:39:55.513Z,76.70
2023-01-03T12:42:34.966Z,77.14
2023-01-03T12:45:32.860Z,76.75
2023-01-03T12:48:10.216Z,76.80
2023-01-03T12:50:45.699Z,76.75
2023-01-03T12:53:20.049Z,76.65
2023-01-03T12:56:06.562Z,76.63
2023-01-03T12:58:46.724Z,76.06
2023-01-03T13:01:22.516Z,75.72
2023-01-03T13:03:57.061Z,76.45
2023-01-03T13:06:30.410Z,76.59
2023-01-03T13:09:04.617Z,75.68
2023-01-03T13:11:38.996Z,76.06
2023-01-03T13:14:21.730Z,76.79
2023-01-03T13:16:53.900Z,76.16
2023-01-03T13:19:59.239Z,76.62
2023-01-03T13:22:52.985Z,76.41
2023-01-03T13:25:34.342Z,76.80
2023-01-03T13:28:09.547Z,76.47
2023-01-03T13:30:40.472Z,76.38
2023-01-03T13:33:21.581Z,76.02
2023-01-03T13:36:03.191Z,77.03
2023-01-03T13:38:35.962Z,76.66
2023-01-03T13:41:28.008Z,76.53
2023-01-03T13:44:07.886Z,76.90
2023-01-03T13:46:40.769Z,77.39
2023-01-03T13:49:20.529Z,76.42
2023-01-03T13:51:52.364Z,76.37
2023-01-03T13:55:00.641Z,76.54
2023-01-03T13:57:37.807Z,76.78
2023-01-03T14:00:19.967Z,76.75
2023-01-03T14:03:24.381Z,77.14
2023-01-03T14:06:32.643Z,77.98
2023-01-03T14:09:31.388Z,77.64
2023-01-03T14:12:17.792Z,78.64
2023-01-03T14:14:54.163Z,79.47
2023-01-03T14:17:30.170Z,79.35
2023-01-03T14:20:09.531Z,79.76
2023-01-03T14:22:44.348Z,79.96
2023-01-03T14:25:35.423Z,80.22
2023-01-03T14:28:16.960Z,80.15
2023-01-03T14:30:48.423Z,80.07
2023-01-03T14:33:20.077Z,80.76
2023-01-03T14:35:50.107Z,80.51
2023-01-03T14:38:28.123Z,80.56
2023-01-03T14:40:58.998Z,80.43
2023-01-03T14:43:29.426Z,80.58
2023-01-03T14:46:03.166Z,80.74
2023-01-03T14:48:32.774Z,80.93
2023-01-03T14:51:04.210Z,80.50
2023-01-03T14:53:35.917Z,80.13
2023-01-03T14:56:07.044Z,80.56
2023-01-03T14:58:40.324Z,80.28
2023-01-03T15:01:14.537Z,81.19
2023-01-03T15:03:46.225Z,81.32
2023-01-03T15:06:22.532Z,82.02
2023-01-03T15:08:55.925Z,81.95
2023-01-03T15:11:31.241Z,82.14
2023-01-03T15:14:04.150Z,81.63
2023-01-03T15:16:36.481Z,81.79
2023-01-03T15:19:15.927Z,82.40
2023-01-03T15:21:45.791Z,82.13
2023-01-03T15:24:21.612Z,82.31
2023-01-03T15:26:53.958Z,82.18
2023-01-03T15:29:25.132Z,81.99
2023-01-03T15:32:01.705Z,81.90
2023-01-03T15:34:41.821Z,81.97
2023-01-03T15:37:19.723Z,82.35
2023-01-03T15:39:53.759Z,82.81
2023-01-03T15:42:47.819Z,82.98
2023-01-03T15:45:26.304Z,82.57
2023-01-03T15:48:01.738Z,82.08
2023-01-03T15:50:43.198Z,82.53
2023-01-03T15:53:26.851Z,82.48
2023-01-03T15:56:01.159Z,83.17
2023-01-03T15:58:31.842Z,82.51
2023-01-03T16:01:02.120Z,82.93
2023-01-03T16:03:34.031Z,82.17
2023-01-03T16:06:03.623Z,82.12
2023-01-03T16:08:34.833Z,81.84
2023-01-03T16:11:07.861Z,82.52
2023-01-03T16:13:40.923Z,82.65
2023-01-03T16:16:11.297Z,82.95
2023-01-03T16:18:45.333Z,82.50
2023-01-03T16:21:16.952Z,82.61
2023-01-03T16:23:51.656Z,82.29
2023-01-03T16:26:27.608Z,82.23
2023-01-03T16:28:59.517Z,82.81
2023-01-03T16:31:32.236Z,82.63
2023-01-03T16:34:04.108Z,82.15
2023-01-03T16:36:37.070Z,82.16
2023-01-03T16:39:11.326Z,82.18
2023-01-03T16:41:42.297Z,82.73
2023-01-03T16:44:12.045Z,82.24
2023-01-03T16:46:41.788Z,83.15
2023-01-03T16:49:14.266Z,82.14
2023-01-03T16:51:57.179Z,82.62
2023-01-03T16:54:28.021Z,82.75
2023-01-03T16:56:58.791Z,82.65
2023-01-03T16:59:28.683Z,82.59
2023-01-03T17:01:58.132Z,82.19
2023-01-03T17:04:27.934Z,82.68
2023-01-03T17:06:57.395Z,82.60
2023-01-03T17:09:32.925Z,82.63
2023-01-03T17:12:04.560Z,82.56
2023-01-03T17:14:37.471Z,83.09
2023-01-03T17:17:12.804Z,82.77
2023-01-03T17:20:03.289Z,82.59
2023-01-03T17:22:31.927Z,82.95
2023-01-03T17:25:01.580Z,82.95
2023-01-03T17:27:33.664Z,83.50
2023-01-03T17:30:06.257Z,83.43
2023-01-03T17:32:36.199Z,83.25
2023-01-03T17:35:05.870Z,83.16
2023-01-03T17:37:57.910Z,83.18
2023-01-03T17:40:33.168Z,82.97
2023-01-03T17:43:04.970Z,83.06
2023-01-03T17:45:52.585Z,82.76
2023-01-03T17:48:40.698Z,83.38
2023-01-03T17:51:12.625Z,82.66
2023-01-03T17:53:42.728Z,82.73
2023-01-03T17:56:16.147Z,82.73
2023-01-03T17:58:55.591Z,82.97
2023-01-03T18:01:26.512Z,82.44
2023-01-03T18:03:55.977Z,82.30
2023-01-03T18:06:27.139Z,82.23
2023-01-03T18:08:57.129Z,82.30
2023-01-03T18:11:27.626Z,81.78
2023-01-03T18:13:58.456Z,82.64
2023-01-03T18:16:28.340Z,82.57
2023-01-03T18:18:57.875Z,82.55
2023-01-03T18:21:29.201Z,82.08
2023-01-03T18:24:02.590Z,82.29
2023-01-03T18:26:35.082Z,82.05
2023-01-03T18:29:07.555Z,81.67
2023-01-03T18:31:37.349Z,82.26
2023-01-03T18:34:06.660Z,81.80
2023-01-03T18:36:42.307Z,81.66
2023-01-03T18:39:15.875Z,81.81
2023-01-03T18:41:46.067Z,81.95
2023-01-03T18:44:23.369Z,81.67
2023-01-03T18:46:53.837Z,81.51
2023-01-03T18:49:23.236Z,81.75
2023-01-03T18:51:55.243Z,82.13
2023-01-03T18:54:24.851Z,81.78
2023-01-03T18:56:54.475Z,81.99
2023-01-03T18:59:28.168Z,81.80
2023-01-03T19:01:57.999Z,81.92
2023-01-03T19:04:27.472Z,81.71
2023-01-03T19:06:57.105Z,82.00
2023-01-03T19:09:30.248Z,82.28
2023-01-03T19:12:00.298Z,81.84
2023-01-03T19:14:31.093Z,81.94
2023-01-03T19:17:00.797Z,81.84
2023-01-03T19:19:30.093Z,81.78
2023-01-03T19:21:59.869Z,82.47
2023-01-03T19:24:38.904Z,82.06
2023-01-03T19:27:16.635Z,82.44
2023-01-03T19:29:47.613Z,82.33
2023-01-03T19:32:20.362Z,81.99
2023-01-03T19:34:49.813Z,82.14
2023-01-03T19:37:19.720Z,81.80
2023-01-03T19:39:49.170Z,82.14
2023-01-03T19:42:38.410Z,82.73
2023-01-03T19:45:18.606Z,82.61
2023-01-03T19:47:48.323Z,82.50
2023-01-03T19:50:20.893Z,83.02
2023-01-03T19:52:51.074Z,82.50
2023-01-03T19:55:21.019Z,82.81
2023-01-03T19:57:52.068Z,82.55
2023-01-03T20:00:24.567Z,82.60
2023-01-03T20:02:57.677Z,82.77
2023-01-03T20:05:35.275Z,82.69
2023-01-03T20:08:11.713Z,82.56
2023-01-03T20:10:43.750Z,82.85
2023-01-03T20:13:19.396Z,82.33
2023-01-03T20:15:52.127Z,83.03
2023-01-03T20:18:27.561Z,83.06
2023-01-03T20:21:00.092Z,82.67
2023-01-03T20:23:34.435Z,82.72
2023-01-03T20:26:04.380Z,82.59
2023-01-03T20:28:34.542Z,82.37
2023-01-03T20:31:05.487Z,82.48
2023-01-03T20:33:35.270Z,82.60
2023-01-03T20:36:17.939Z,82.33
2023-01-03T20:38:54.436Z,83.05
2023-01-03T20:41:36.279Z,82.43
2023-01-03T20:44:08.028Z,82.53
2023-01-03T20:46:39.934Z,83.10
2023-01-03T20:49:16.154Z,82.34
2023-01-03T20:51:45.977Z,82.67
2023-01-03T20:54:15.726Z,82.80
2023-01-03T20:56:45.879Z,82.62
2023-01-03T20:59:17.889Z,82.40
2023-01-03T21:01:49.808Z,82.96
2023-01-03T21:04:19.852Z,82.67
2023-01-03T21:06:50.086Z,83.09
2023-01-03T21:09:18.811Z,83.43
2023-01-03T21:11:48.242Z,83.68
2023-01-03T21:14:18.313Z,83.13
2023-01-03T21:16:50.253Z,83.20
2023-01-03T21:19:21.832Z,83.54
2023-01-03T21:21:53.022Z,83.15
2023-01-03T21:24:24.251Z,83.42
2023-01-03T21:26:53.760Z,83.37
2023-01-03T21:29:23.370Z,82.95
2023-01-03T21:31:54.295Z,83.67
2023-01-03T21:34:24.174Z,82.89
2023-01-03T21:36:53.590Z,82.47
2023-01-03T21:39:23.249Z,83.38
2023-01-03T21:42:10.404Z,82.70
2023-01-03T21:44:40.188Z,83.07
2023-01-03T21:47:11.691Z,82.41
2023-01-03T21:49:41.459Z,82.97
2023-01-03T21:52:10.822Z,82.51
2023-01-03T21:54:40.425Z,82.97
2023-01-03T21:57:09.832Z,82.18
2023-01-03T21:59:39.455Z,82.60
2023-01-03T22:02:30.443Z,83.00
2023-01-03T22:05:00.259Z,82.97
2023-01-03T22:07:29.609Z,83.19
2023-01-03T22:10:18.784Z,83.28
2023-01-03T22:12:49.887Z,82.99
2023-01-03T22:15:19.870Z,82.92
2023-01-03T22:17:50.879Z,82.68
2023-01-03T22:20:22.467Z,82.42
2023-01-03T22:22:52.118Z,83.09
2023-01-03T22:25:22.875Z,83.07
2023-01-03T22:27:54.714Z,83.67
2023-01-03T22:30:24.877Z,83.38
2023-01-03T22:32:58.296Z,82.90
2023-01-03T22:35:28.137Z,83.33
2023-01-03T22:37:58.364Z,82.90
2023-01-03T22:40:28.122Z,83.23
2023-01-03T22:42:57.559Z,83.18
2023-01-03T22:45:27.210Z,83.06
2023-01-03T22:47:59.282Z,83.49
2023-01-03T22:50:29.003Z,83.40
2023-01-03T22:52:58.331Z,83.28
2023-01-03T22:55:32.052Z,83.70
2023-01-03T22:58:01.836Z,83.00
2023-01-03T23:00:31.498Z,83.13
2023-01-03T23:03:03.740Z,83.06
2023-01-03T23:05:36.173Z,83.54
2023-01-03T23:08:05.569Z,83.52
2023-01-03T23:10:35.226Z,83.44
2023-01-03T23:13:03.652Z,83.37
2023-01-03T23:15:34.208Z,83.86
2023-01-03T23:18:04.851Z,83.44
2023-01-03T23:20:36.325Z,83.36
2023-01-03T23:23:05.927Z,83.34
2023-01-03T23:25:37.775Z,83.21
2023-01-03T23:28:07.375Z,83.51
2023-01-03T23:30:37.571Z,83.47
2023-01-03T23:33:08.390Z,83.23
2023-01-03T23:35:39.062Z,83.41
2023-01-03T23:38:08.094Z,83.15
2023-01-03T23:40:41.330Z,83.38
2023-01-03T23:43:11.645Z,83.29
2023-01-03T23:45:41.347Z,83.35
2023-01-03T23:48:12.135Z,83.25
2023-01-03T23:50:41.917Z,83.27
2023-01-03T23:53:11.176Z,82.93
2023-01-03T23:55:40.907Z,82.81
2023-01-03T23:58:10.157Z,82.60
